createdAt,value
2019-05-06T00:00:37.739Z,4.90
2019-05-06T00:03:05.061Z,5.10
2019-05-06T00:05:34.002Z,4.40
2019-05-06T00:08:00.141Z,5.70
2019-05-06T00:10:31.344Z,5.00
2019-05-06T00:12:58.004Z,4.80
2019-05-06T00:15:25.221Z,4.77
2019-05-06T00:17:53.916Z,4.60
2019-05-06T00:20:20.494Z,4.67
2019-05-06T00:22:47.303Z,5.00
2019-05-06T00:25:24.690Z,4.83
2019-05-06T00:28:09.657Z,5.50
2019-05-06T00:30:36.658Z,5.83
2019-05-06T00:33:04.385Z,5.00
2019-05-06T00:35:30.920Z,4.90
2019-05-06T00:37:57.344Z,5.27
2019-05-06T00:40:25.673Z,4.50
2019-05-06T00:42:56.729Z,5.10
2019-05-06T00:45:24.340Z,5.03
2019-05-06T00:47:51.177Z,5.53
2019-05-06T00:50:17.657Z,4.90
2019-05-06T00:52:44.724Z,5.17
2019-05-06T00:55:13.580Z,5.23
2019-05-06T00:57:43.799Z,5.03
2019-05-06T01:00:17.722Z,5.07
2019-05-06T01:02:45.171Z,4.67
2019-05-06T01:05:13.899Z,5.23
2019-05-06T01:07:40.596Z,5.20
2019-05-06T01:10:07.624Z,5.53
2019-05-06T01:12:36.096Z,4.57
2019-05-06T01:15:07.827Z,5.47
2019-05-06T01:17:34.113Z,6.10
2019-05-06T01:20:00.380Z,5.50
2019-05-06T01:22:26.822Z,6.00
2019-05-06T01:24:55.706Z,5.27
2019-05-06T01:27:23.652Z,5.57
2019-05-06T01:29:50.031Z,5.50
2019-05-06T01:32:16.498Z,5.17
2019-05-06T01:34:44.630Z,5.17
2019-05-06T01:37:11.301Z,4.90
2019-05-06T01:39:55.994Z,5.87
2019-05-06T01:42:42.219Z,5.23
2019-05-06T01:45:09.322Z,5.43
2019-05-06T01:47:35.957Z,6.47
2019-05-06T01:50:05.247Z,6.30
2019-05-06T01:52:31.545Z,5.47
2019-05-06T01:54:57.847Z,5.40
2019-05-06T01:57:24.575Z,6.10
2019-05-06T01:59:50.832Z,6.10
2019-05-06T02:02:17.331Z,5.87
2019-05-06T02:04:44.387Z,6.03
2019-05-06T02:07:11.144Z,5.53
2019-05-06T02:09:37.591Z,5.53
2019-05-06T02:12:04.759Z,5.70
2019-05-06T02:14:31.508Z,6.30
2019-05-06T02:16:58.395Z,5.50
2019-05-06T02:19:27.217Z,6.10
2019-05-06T02:21:55.524Z,6.23
2019-05-06T02:24:26.802Z,6.53
2019-05-06T02:26:54.231Z,6.13
2019-05-06T02:29:25.563Z,6.40
2019-05-06T02:31:56.694Z,6.57
2019-05-06T02:34:27.225Z,7.20
2019-05-06T02:37:01.339Z,6.40
2019-05-06T02:39:27.647Z,7.13
2019-05-06T02:41:55.137Z,5.53
2019-05-06T02:44:23.816Z,6.30
2019-05-06T02:46:54.648Z,6.73
2019-05-06T02:49:25.656Z,5.70
2019-05-06T02:51:53.538Z,6.43
2019-05-06T02:54:23.166Z,6.23
2019-05-06T02:56:48.658Z,6.30
2019-05-06T02:59:15.108Z,5.80
2019-05-06T03:01:43.307Z,5.93
2019-05-06T03:04:09.807Z,6.67
2019-05-06T03:06:56.145Z,6.63
2019-05-06T03:09:23.436Z,6.03
2019-05-06T03:11:49.912Z,6.90
2019-05-06T03:14:16.513Z,6.93
2019-05-06T03:16:43.932Z,7.43
2019-05-06T03:19:13.340Z,6.23
2019-05-06T03:21:44.483Z,7.33
2019-05-06T03:24:16.979Z,6.77
2019-05-06T03:26:43.914Z,6.80
2019-05-06T03:29:13.521Z,6.77
2019-05-06T03:31:38.835Z,6.47
2019-05-06T03:34:28.005Z,6.53
2019-05-06T03:36:40.341Z,7.53
2019-05-06T03:39:05.190Z,6.90
2019-05-06T03:41:33.841Z,6.80
2019-05-06T03:44:03.034Z,6.97
2019-05-06T03:46:30.211Z,6.70
2019-05-06T03:49:13.357Z,7.00
2019-05-06T03:51:38.160Z,7.60
2019-05-06T03:54:04.671Z,7.30
2019-05-06T03:56:33.862Z,7.07
2019-05-06T03:59:02.781Z,7.00
2019-05-06T04:01:29.437Z,7.90
2019-05-06T04:03:57.402Z,8.13
2019-05-06T04:06:24.371Z,8.03
2019-05-06T04:08:52.861Z,7.80
2019-05-06T04:11:22.897Z,7.70
2019-05-06T04:13:53.422Z,7.77
2019-05-06T04:16:27.475Z,8.37
2019-05-06T04:18:58.705Z,9.13
2019-05-06T04:21:43.828Z,8.80
2019-05-06T04:24:13.342Z,9.30
2019-05-06T04:26:53.436Z,8.47
2019-05-06T04:29:19.497Z,8.77
2019-05-06T04:31:46.717Z,8.53
2019-05-06T04:34:19.156Z,9.10
2019-05-06T04:36:44.078Z,8.93
2019-05-06T04:39:13.138Z,10.33
2019-05-06T04:41:39.694Z,9.43
2019-05-06T04:44:06.466Z,9.63
2019-05-06T04:46:34.879Z,10.57
2019-05-06T04:49:04.020Z,9.37
2019-05-06T04:51:33.362Z,10.27
2019-05-06T04:53:58.941Z,10.10
2019-05-06T04:56:25.900Z,10.20
2019-05-06T04:58:53.857Z,10.07
2019-05-06T05:01:23.110Z,12.07
2019-05-06T05:03:49.108Z,11.77
2019-05-06T05:06:15.603Z,11.03
2019-05-06T05:08:42.768Z,11.20
2019-05-06T05:11:28.030Z,10.70
2019-05-06T05:13:59.475Z,11.60
2019-05-06T05:16:37.459Z,10.80
2019-05-06T05:19:05.950Z,11.17
2019-05-06T05:21:33.297Z,10.80
2019-05-06T05:24:01.914Z,11.10
2019-05-06T05:26:29.140Z,10.67
2019-05-06T05:28:55.531Z,11.63
2019-05-06T05:31:23.008Z,11.33
2019-05-06T05:33:50.208Z,11.10
2019-05-06T05:36:16.724Z,11.80
2019-05-06T05:38:43.613Z,12.03
2019-05-06T05:41:12.087Z,12.10
2019-05-06T05:43:52.803Z,11.87
2019-05-06T05:46:19.440Z,11.77
2019-05-06T05:48:52.010Z,12.03
2019-05-06T05:51:19.080Z,12.90
2019-05-06T05:53:45.802Z,12.47
2019-05-06T05:56:12.649Z,12.03
2019-05-06T05:58:39.262Z,12.17
2019-05-06T06:01:06.165Z,11.03
2019-05-06T06:03:32.764Z,11.50
2019-05-06T06:05:59.358Z,11.73
2019-05-06T06:08:26.284Z,13.43
2019-05-06T06:10:57.620Z,12.77
2019-05-06T06:13:24.250Z,12.37
2019-05-06T06:15:52.727Z,12.10
2019-05-06T06:18:22.422Z,13.03
2019-05-06T06:20:53.875Z,13.00
2019-05-06T06:23:23.081Z,12.73
2019-05-06T06:25:50.048Z,13.70
2019-05-06T06:28:16.674Z,13.67
2019-05-06T06:30:54.640Z,12.50
2019-05-06T06:33:22.355Z,12.90
2019-05-06T06:36:02.895Z,12.27
2019-05-06T06:38:43.589Z,13.17
2019-05-06T06:41:12.019Z,12.77
2019-05-06T06:43:38.779Z,12.50
2019-05-06T06:46:09.347Z,12.37
2019-05-06T06:48:33.975Z,13.60
2019-05-06T06:51:03.281Z,12.00
2019-05-06T06:53:28.762Z,12.30
2019-05-06T06:55:57.324Z,12.50
2019-05-06T06:58:32.288Z,11.87
2019-05-06T07:01:17.374Z,12.27
2019-05-06T07:03:45.860Z,12.40
2019-05-06T07:06:17.384Z,11.60
2019-05-06T07:08:44.049Z,11.97
2019-05-06T07:11:12.952Z,11.70
2019-05-06T07:13:44.659Z,11.83
2019-05-06T07:16:12.340Z,12.33
2019-05-06T07:18:39.049Z,10.93
2019-05-06T07:21:10.070Z,11.23
2019-05-06T07:23:36.765Z,11.13
2019-05-06T07:26:03.482Z,10.73
2019-05-06T07:28:32.439Z,11.23
2019-05-06T07:31:14.998Z,10.80
2019-05-06T07:33:26.885Z,10.50
2019-05-06T07:35:53.598Z,10.97
2019-05-06T07:38:20.269Z,11.37
2019-05-06T07:40:48.714Z,10.13
2019-05-06T07:43:34.203Z,11.60
2019-05-06T07:46:17.404Z,10.63
2019-05-06T07:48:43.671Z,10.23
2019-05-06T07:51:12.304Z,9.87
2019-05-06T07:53:38.695Z,9.37
2019-05-06T07:56:05.235Z,9.07
2019-05-06T07:58:32.358Z,9.73
2019-05-06T08:00:58.890Z,9.43
2019-05-06T08:03:25.344Z,8.90
2019-05-06T08:05:58.188Z,8.83
2019-05-06T08:08:22.863Z,12.17
2019-05-06T08:10:48.685Z,7.73
2019-05-06T08:13:15.100Z,9.10
2019-05-06T08:15:42.132Z,6.57
2019-05-06T08:18:08.868Z,7.40
2019-05-06T08:20:37.962Z,6.87
2019-05-06T08:23:15.140Z,7.23
2019-05-06T08:25:43.541Z,7.60
2019-05-06T08:28:10.159Z,7.57
2019-05-06T08:30:36.621Z,7.93
2019-05-06T08:33:03.479Z,7.97
2019-05-06T08:35:30.039Z,8.30
2019-05-06T08:37:56.851Z,8.33
2019-05-06T08:40:26.415Z,8.63
2019-05-06T08:42:53.219Z,8.40
2019-05-06T08:45:21.937Z,7.23
2019-05-06T08:47:48.223Z,6.20
2019-05-06T08:50:22.476Z,6.10
2019-05-06T08:53:09.280Z,7.07
2019-05-06T08:55:37.650Z,6.60
2019-05-06T08:58:04.375Z,6.67
2019-05-06T09:00:33.173Z,5.50
2019-05-06T09:02:59.782Z,5.47
2019-05-06T09:05:26.228Z,6.00
2019-05-06T09:07:52.840Z,8.07
2019-05-06T09:10:19.460Z,7.30
2019-05-06T09:12:46.042Z,6.97
2019-05-06T09:15:12.780Z,7.10
2019-05-06T09:17:39.273Z,7.53
2019-05-06T09:20:06.605Z,6.67
2019-05-06T09:22:33.183Z,7.43
2019-05-06T09:24:59.593Z,6.33
2019-05-06T09:27:44.313Z,5.43
2019-05-06T09:30:13.212Z,5.83
2019-05-06T09:32:42.923Z,5.90
2019-05-06T09:35:09.734Z,6.30
2019-05-06T09:37:36.313Z,6.40
2019-05-06T09:40:05.819Z,6.17
2019-05-06T09:42:32.289Z,6.60
2019-05-06T09:44:58.939Z,7.50
2019-05-06T09:47:27.449Z,6.00
2019-05-06T09:49:53.969Z,5.50
2019-05-06T09:52:22.914Z,5.57
2019-05-06T09:54:53.466Z,5.17
2019-05-06T09:57:27.081Z,5.37
2019-05-06T09:59:53.717Z,5.93
2019-05-06T10:02:22.841Z,5.80
2019-05-06T10:04:49.111Z,5.90
2019-05-06T10:07:15.771Z,5.33
2019-05-06T10:09:43.464Z,4.97
2019-05-06T10:12:12.558Z,5.20
2019-05-06T10:14:40.255Z,5.73
2019-05-06T10:17:06.914Z,4.83
2019-05-06T10:19:33.936Z,6.07
2019-05-06T10:22:00.482Z,5.87
2019-05-06T10:24:26.987Z,5.97
2019-05-06T10:26:55.372Z,6.47
2019-05-06T10:29:40.389Z,6.10
2019-05-06T10:32:08.933Z,7.17
2019-05-06T10:34:35.533Z,6.80
2019-05-06T10:37:19.184Z,7.33
2019-05-06T10:40:03.735Z,6.50
2019-05-06T10:42:38.771Z,6.70
2019-05-06T10:45:16.580Z,6.70
2019-05-06T10:47:43.151Z,7.27
2019-05-06T10:50:12.602Z,7.70
2019-05-06T10:52:57.897Z,6.43
2019-05-06T10:55:24.390Z,7.00
2019-05-06T10:57:53.150Z,6.67
2019-05-06T11:00:22.610Z,6.80
2019-05-06T11:03:07.005Z,7.03
2019-05-06T11:05:33.426Z,6.50
2019-05-06T11:07:59.754Z,6.17
2019-05-06T11:10:31.241Z,6.77
2019-05-06T11:12:54.709Z,6.77
2019-05-06T11:15:23.270Z,6.60
2019-05-06T11:17:49.605Z,6.50
2019-05-06T11:20:16.208Z,6.50
2019-05-06T11:22:43.527Z,6.47
2019-05-06T11:25:12.297Z,6.80
2019-05-06T11:27:41.872Z,8.70
2019-05-06T11:30:24.868Z,8.73
2019-05-06T11:33:04.628Z,9.43
2019-05-06T11:35:52.860Z,10.53
2019-05-06T11:38:22.632Z,10.20
2019-05-06T11:40:48.772Z,14.30
2019-05-06T11:43:15.496Z,10.43
2019-05-06T11:45:42.741Z,10.30
2019-05-06T11:48:09.547Z,10.30
2019-05-06T11:50:36.695Z,10.40
2019-05-06T11:53:03.205Z,9.80
2019-05-06T11:55:36.181Z,9.77
2019-05-06T11:57:58.404Z,9.47
2019-05-06T12:00:27.055Z,10.40
2019-05-06T12:02:53.637Z,9.30
2019-05-06T12:05:22.323Z,10.37
2019-05-06T12:08:01.852Z,10.00
2019-05-06T12:10:17.119Z,10.27
2019-05-06T12:12:43.629Z,11.13
2019-05-06T12:15:12.557Z,13.47
2019-05-06T12:17:39.200Z,13.70
2019-05-06T12:20:06.074Z,12.67
2019-05-06T12:22:35.188Z,12.97
2019-05-06T12:25:11.153Z,15.03
2019-05-06T12:27:44.935Z,15.27
2019-05-06T12:30:18.488Z,27.13
2019-05-06T12:33:03.197Z,23.10
2019-05-06T12:35:32.233Z,17.90
2019-05-06T12:38:05.209Z,18.20
2019-05-06T12:40:29.130Z,17.83
2019-05-06T12:43:14.531Z,18.53
2019-05-06T12:45:43.123Z,17.57
2019-05-06T12:48:14.197Z,18.43
2019-05-06T12:50:42.988Z,17.30
2019-05-06T12:53:09.185Z,18.60
2019-05-06T12:55:35.992Z,18.37
2019-05-06T12:58:03.021Z,17.03
2019-05-06T13:00:31.877Z,16.60
2019-05-06T13:02:58.470Z,16.40
2019-05-06T13:05:25.153Z,15.33
2019-05-06T13:07:52.698Z,14.03
2019-05-06T13:10:23.126Z,14.13
2019-05-06T13:12:53.885Z,12.63
2019-05-06T13:15:19.535Z,12.33
2019-05-06T13:17:46.036Z,11.77
2019-05-06T13:20:14.701Z,11.83
2019-05-06T13:22:43.140Z,10.43
2019-05-06T13:25:13.354Z,9.53
2019-05-06T13:27:38.816Z,9.37
2019-05-06T13:30:06.949Z,9.37
2019-05-06T13:32:35.385Z,8.93
2019-05-06T13:35:02.897Z,8.27
2019-05-06T13:37:29.678Z,7.93
2019-05-06T13:39:56.411Z,7.47
2019-05-06T13:42:24.783Z,7.27
2019-05-06T13:44:51.361Z,7.77
2019-05-06T13:47:19.780Z,6.90
2019-05-06T13:49:54.172Z,6.17
2019-05-06T13:52:23.105Z,6.70
2019-05-06T13:54:49.743Z,7.00
2019-05-06T13:57:16.550Z,6.23
2019-05-06T13:59:44.226Z,5.70
2019-05-06T14:02:18.582Z,6.80
2019-05-06T14:04:45.190Z,6.00
2019-05-06T14:07:13.038Z,6.10
2019-05-06T14:09:40.513Z,6.70
2019-05-06T14:12:08.091Z,5.80
2019-05-06T14:14:34.771Z,5.67
2019-05-06T14:17:01.507Z,5.90
2019-05-06T14:19:29.342Z,6.43
2019-05-06T14:21:56.908Z,6.27
2019-05-06T14:24:23.550Z,6.43
2019-05-06T14:26:57.538Z,7.70
2019-05-06T14:29:23.426Z,7.17
2019-05-06T14:31:52.476Z,7.40
2019-05-06T14:34:19.535Z,7.87
2019-05-06T14:36:46.081Z,7.10
2019-05-06T14:39:14.540Z,8.33
2019-05-06T14:41:54.755Z,7.77
2019-05-06T14:44:23.109Z,8.60
2019-05-06T14:46:57.584Z,8.70
2019-05-06T14:49:24.252Z,8.87
2019-05-06T14:51:53.373Z,8.53
2019-05-06T14:54:19.445Z,8.23
2019-05-06T14:56:53.251Z,9.37
2019-05-06T14:59:19.400Z,9.03
2019-05-06T15:01:46.009Z,9.03
2019-05-06T15:04:12.769Z,8.40
2019-05-06T15:06:39.386Z,9.13
2019-05-06T15:09:07.187Z,8.93
2019-05-06T15:11:33.827Z,9.10
2019-05-06T15:14:03.471Z,8.30
2019-05-06T15:16:29.025Z,9.17
2019-05-06T15:18:55.364Z,9.20
2019-05-06T15:21:37.110Z,9.30
2019-05-06T15:23:52.924Z,9.23
2019-05-06T15:26:18.771Z,9.57
2019-05-06T15:28:45.290Z,9.90
2019-05-06T15:31:19.727Z,9.50
2019-05-06T15:33:47.942Z,9.33
2019-05-06T15:36:16.255Z,10.00
2019-05-06T15:38:42.675Z,10.37
2019-05-06T15:41:09.211Z,10.57
2019-05-06T15:43:35.769Z,10.20
2019-05-06T15:46:03.349Z,10.20
2019-05-06T15:48:30.191Z,10.33
2019-05-06T15:50:57.115Z,9.67
2019-05-06T15:53:23.792Z,10.07
2019-05-06T15:55:50.287Z,9.43
2019-05-06T15:58:16.897Z,9.10
2019-05-06T16:00:43.546Z,9.53
2019-05-06T16:03:12.762Z,7.83
2019-05-06T16:05:38.877Z,7.80
2019-05-06T16:08:05.586Z,9.17
2019-05-06T16:10:37.877Z,10.53
2019-05-06T16:13:02.316Z,9.63
2019-05-06T16:15:29.230Z,9.40
2019-05-06T16:17:55.942Z,11.20
2019-05-06T16:20:22.447Z,10.37
2019-05-06T16:22:52.250Z,11.20
2019-05-06T16:25:19.108Z,10.93
2019-05-06T16:27:50.966Z,10.83
2019-05-06T16:30:17.686Z,11.53
2019-05-06T16:32:44.501Z,11.53
2019-05-06T16:35:11.983Z,11.50
2019-05-06T16:37:42.056Z,11.63
2019-05-06T16:40:12.192Z,11.73
2019-05-06T16:42:38.478Z,12.30
2019-05-06T16:45:07.066Z,12.87
2019-05-06T16:47:37.534Z,11.97
2019-05-06T16:50:13.193Z,12.03
2019-05-06T16:52:39.935Z,11.97
2019-05-06T16:55:11.343Z,11.07
2019-05-06T16:57:38.375Z,10.40
2019-05-06T17:00:08.394Z,9.80
2019-05-06T17:02:36.975Z,9.67
2019-05-06T17:05:15.839Z,8.90
2019-05-06T17:07:45.029Z,8.73
2019-05-06T17:10:11.861Z,9.40
2019-05-06T17:12:38.320Z,9.03
2019-05-06T17:15:05.249Z,9.13
2019-05-06T17:17:40.728Z,8.93
2019-05-06T17:20:02.944Z,8.10
2019-05-06T17:22:29.006Z,6.80
2019-05-06T17:24:55.745Z,7.17
2019-05-06T17:27:23.551Z,6.97
2019-05-06T17:29:55.141Z,7.13
2019-05-06T17:32:33.273Z,7.27
2019-05-06T17:35:02.449Z,7.20
2019-05-06T17:37:47.101Z,6.80
2019-05-06T17:40:16.211Z,7.10
2019-05-06T17:42:42.899Z,7.07
2019-05-06T17:45:28.971Z,6.70
2019-05-06T17:47:57.388Z,6.77
2019-05-06T17:50:24.170Z,6.73
2019-05-06T17:52:52.532Z,6.23
2019-05-06T17:55:19.621Z,6.90
2019-05-06T17:57:46.522Z,6.43
2019-05-06T18:00:15.277Z,6.80
2019-05-06T18:02:42.343Z,6.10
2019-05-06T18:05:12.025Z,5.47
2019-05-06T18:07:38.299Z,5.43
2019-05-06T18:10:05.110Z,5.10
2019-05-06T18:12:33.487Z,5.07
2019-05-06T18:15:02.560Z,5.10
2019-05-06T18:17:28.910Z,4.87
2019-05-06T18:19:55.745Z,4.40
2019-05-06T18:22:22.784Z,4.80
2019-05-06T18:24:49.913Z,4.60
2019-05-06T18:27:16.776Z,5.07
2019-05-06T18:29:43.441Z,5.00
2019-05-06T18:32:12.470Z,4.43
2019-05-06T18:34:38.849Z,5.13
2019-05-06T18:37:06.411Z,5.13
2019-05-06T18:39:34.057Z,5.13
2019-05-06T18:42:14.956Z,5.73
2019-05-06T18:44:29.590Z,5.30
2019-05-06T18:46:56.487Z,5.73
2019-05-06T18:49:23.251Z,5.33
2019-05-06T18:51:52.020Z,5.03
2019-05-06T18:54:18.603Z,5.20
2019-05-06T18:56:45.244Z,5.10
2019-05-06T18:59:12.283Z,5.80
2019-05-06T19:01:39.389Z,5.30
2019-05-06T19:04:14.417Z,5.23
2019-05-06T19:06:42.263Z,5.70
2019-05-06T19:09:11.004Z,5.23
2019-05-06T19:11:37.769Z,5.70
2019-05-06T19:14:04.691Z,5.63
2019-05-06T19:16:47.665Z,5.87
2019-05-06T19:19:03.706Z,5.97
2019-05-06T19:21:28.953Z,6.73
2019-05-06T19:23:55.672Z,6.60
2019-05-06T19:26:24.162Z,6.63
2019-05-06T19:28:52.700Z,6.87
2019-05-06T19:31:19.512Z,6.80
2019-05-06T19:33:46.333Z,6.97
2019-05-06T19:36:13.157Z,7.07
2019-05-06T19:38:42.184Z,7.40
2019-05-06T19:41:08.513Z,7.40
2019-05-06T19:43:35.215Z,7.23
2019-05-06T19:46:02.693Z,8.27
2019-05-06T19:48:29.472Z,8.07
2019-05-06T19:50:56.144Z,8.33
2019-05-06T19:53:23.663Z,8.00
2019-05-06T19:55:52.885Z,8.90
2019-05-06T19:58:19.336Z,9.33
2019-05-06T20:00:46.497Z,8.40
2019-05-06T20:03:13.262Z,9.20
2019-05-06T20:05:54.446Z,9.77
2019-05-06T20:08:39.647Z,9.03
2019-05-06T20:11:13.005Z,10.03
2019-05-06T20:13:39.507Z,10.20
2019-05-06T20:16:06.253Z,10.20
2019-05-06T20:18:33.008Z,11.00
2019-05-06T20:20:59.696Z,10.80
2019-05-06T20:23:26.471Z,11.97
2019-05-06T20:25:53.116Z,11.23
2019-05-06T20:28:19.745Z,11.57
2019-05-06T20:30:46.446Z,11.80
2019-05-06T20:33:12.872Z,11.70
2019-05-06T20:35:39.479Z,13.07
2019-05-06T20:38:06.324Z,12.53
2019-05-06T20:40:33.103Z,12.33
2019-05-06T20:43:14.229Z,13.47
2019-05-06T20:45:28.183Z,12.83
2019-05-06T20:47:54.972Z,12.03
2019-05-06T20:50:22.524Z,12.70
2019-05-06T20:52:49.324Z,12.40
2019-05-06T20:55:16.206Z,12.37
2019-05-06T20:57:42.916Z,13.37
2019-05-06T21:00:12.734Z,12.47
2019-05-06T21:02:39.031Z,14.03
2019-05-06T21:05:10.552Z,13.07
2019-05-06T21:07:35.861Z,14.27
2019-05-06T21:10:05.928Z,15.43
2019-05-06T21:12:33.751Z,14.10
2019-05-06T21:15:02.329Z,14.30
2019-05-06T21:17:29.018Z,15.10
2019-05-06T21:19:55.670Z,14.77
2019-05-06T21:22:22.133Z,16.03
2019-05-06T21:24:48.556Z,16.27
2019-05-06T21:27:15.073Z,16.77
2019-05-06T21:29:42.525Z,16.77
2019-05-06T21:32:09.158Z,16.53
2019-05-06T21:34:35.787Z,15.30
2019-05-06T21:37:02.874Z,15.30
2019-05-06T21:39:29.456Z,15.93
2019-05-06T21:41:56.186Z,15.60
2019-05-06T21:44:22.993Z,15.27
2019-05-06T21:46:49.586Z,15.03
2019-05-06T21:49:16.296Z,15.17
2019-05-06T21:51:42.848Z,17.20
2019-05-06T21:54:09.341Z,16.33
2019-05-06T21:56:36.054Z,14.63
2019-05-06T21:59:02.662Z,15.67
2019-05-06T22:01:29.610Z,16.17
2019-05-06T22:03:56.122Z,15.63
2019-05-06T22:06:22.610Z,15.13
2019-05-06T22:08:49.179Z,14.97
2019-05-06T22:11:15.862Z,14.60
2019-05-06T22:13:42.625Z,15.37
2019-05-06T22:16:09.350Z,15.63
2019-05-06T22:18:35.876Z,15.63
2019-05-06T22:21:19.617Z,15.50
2019-05-06T22:23:50.667Z,16.70
2019-05-06T22:26:17.264Z,16.33
2019-05-06T22:28:43.921Z,17.53
2019-05-06T22:31:10.706Z,18.47
2019-05-06T22:33:37.297Z,16.97
2019-05-06T22:36:03.841Z,18.60
2019-05-06T22:38:30.470Z,18.30
2019-05-06T22:40:56.930Z,18.40
2019-05-06T22:43:23.346Z,18.17
2019-05-06T22:45:49.849Z,17.00
2019-05-06T22:48:16.406Z,17.63
2019-05-06T22:50:42.996Z,16.77
2019-05-06T22:53:09.623Z,16.70
2019-05-06T22:55:36.022Z,18.00
2019-05-06T22:58:02.645Z,18.40
2019-05-06T23:00:33.127Z,17.80
2019-05-06T23:03:02.276Z,17.83
2019-05-06T23:05:29.182Z,17.47
2019-05-06T23:07:55.536Z,18.00
2019-05-06T23:10:24.551Z,18.10
2019-05-06T23:12:52.279Z,17.30
2019-05-06T23:15:19.110Z,16.37
2019-05-06T23:17:45.739Z,16.30
2019-05-06T23:20:12.413Z,16.07
2019-05-06T23:22:38.813Z,15.60
2019-05-06T23:25:05.935Z,16.40
2019-05-06T23:27:32.410Z,16.47
2019-05-06T23:29:59.026Z,15.80
2019-05-06T23:32:25.440Z,16.27
2019-05-06T23:34:52.385Z,16.13
2019-05-06T23:37:18.529Z,15.30
2019-05-06T23:40:42.725Z,15.07
2019-05-06T23:44:05.400Z,15.30
2019-05-06T23:47:27.721Z,16.40
2019-05-06T23:50:50.007Z,15.10
2019-05-06T23:54:12.667Z,15.07
2019-05-06T23:56:43.712Z,15.37
2019-05-06T23:59:14.689Z,15.87
